»·PEaware :: N3600U KLGB-KSFO

N3600U :: KLGB-KSFO

FLIGHT INFORMATION

Flight Status: Arrived
Operator: Privately registered:
United States
More flights under this callsign
Pilot: Matthew F. (17981)
Aircraft: BOMBARDIER BD-100 CHALLENGER 300
(CL30)
More flights by this aircraft type
Origin: KLGB Long Beach
United States
Destination: KSFO San Francisco Intl
United States
More flights between these airports :: More routes between these airports
Route: +TOPMM3 IKAYE VTU RZS STOKD SERFR SERFR2
File this flight plan on PilotEdge
Remarks:
Altitude:
(Current/Filed)
38,000ft
Speed:
(Current/Filed)
420kts
Departed: 13-Mar-18 08:24 PM
Arrived: 13-Mar-18 09:26 PM
Distance/Time
Traveled:
307nm/1:01
Distance/Time
To Go:
Arrived

Flight Plot

Page will automatically refresh every two minutes.

Flight plan parsing failed; only flown route is shown


Map Options




Map Legend


Flown Route
Filed Route
Departure Airport
Arrival Airport
Navaid (VOR, NDB)
Fix

Horizontal Profiles

Position Reports

Time Latitude Longitude Heading Altitude Ground
Speed
13-Mar-18 20:10 33.812114 -118.150937 90 41ft 0kts
13-Mar-18 20:11 33.812114 -118.150937 90 41ft 0kts
13-Mar-18 20:12 33.812114 -118.150937 90 41ft 0kts
13-Mar-18 20:13 33.812114 -118.150937 90 41ft 0kts
13-Mar-18 20:14 33.812114 -118.150937 90 41ft 0kts
13-Mar-18 20:15 33.812114 -118.150937 90 41ft 0kts
13-Mar-18 20:16 33.812114 -118.150937 90 41ft 0kts
13-Mar-18 20:17 33.812114 -118.150937 90 41ft 0kts
13-Mar-18 20:18 33.812334 -118.151421 187 42ft 8kts
13-Mar-18 20:19 33.813071 -118.151671 71 43ft 9kts
13-Mar-18 20:20 33.813091 -118.148546 92 39ft 3kts
13-Mar-18 20:21 33.811533 -118.145446 131 34ft 15kts
13-Mar-18 20:22 33.809763 -118.143282 134 32ft 9kts
13-Mar-18 20:23 33.810533 -118.142570 313 31ft 55kts
13-Mar-18 20:24 33.833327 -118.167441 321 968ft 193kts
13-Mar-18 20:25 33.877828 -118.211745 317 2619ft 256kts
13-Mar-18 20:26 33.907546 -118.286150 269 7220ft 246kts
13-Mar-18 20:27 33.897797 -118.346682 266 9996ft 252kts
13-Mar-18 20:28 33.854995 -118.398775 216 13090ft 252kts
13-Mar-18 20:29 33.835447 -118.473391 255 15713ft 265kts
13-Mar-18 20:30 33.825342 -118.555379 257 17812ft 272kts
13-Mar-18 20:31 33.864212 -118.636681 308 18896ft 377kts
13-Mar-18 20:32 33.930562 -118.718499 305 22185ft 385kts
13-Mar-18 20:33 33.998914 -118.806791 304 24950ft 396kts
13-Mar-18 20:34 34.068657 -118.898277 303 27349ft 405kts
13-Mar-18 20:35 34.138827 -118.990914 303 29358ft 413kts
13-Mar-18 20:36 34.210905 -119.086439 302 31062ft 421kts
13-Mar-18 20:37 34.284102 -119.183750 302 32524ft 428kts
13-Mar-18 20:38 34.358605 -119.283059 302 33783ft 435kts
13-Mar-18 20:39 34.434206 -119.384134 302 34609ft 440kts
13-Mar-18 20:40 34.505763 -119.478299 301 36008ft 379kts
13-Mar-18 20:41 34.571437 -119.567027 301 36221ft 389kts
13-Mar-18 20:42 34.639772 -119.660104 301 37208ft 400kts
13-Mar-18 20:43 34.708109 -119.752732 301 38074ft 413kts
13-Mar-18 20:44 34.781071 -119.851700 302 38089ft 434kts
13-Mar-18 20:45 34.852648 -119.948810 301 38065ft 406kts
13-Mar-18 20:46 34.921194 -120.041582 301 38066ft 395kts
13-Mar-18 20:47 34.988988 -120.134686 300 38071ft 399kts
13-Mar-18 20:48 35.057282 -120.228405 300 38073ft 403kts
13-Mar-18 20:49 35.124648 -120.321013 300 38061ft 405kts
13-Mar-18 20:50 35.194058 -120.416638 300 38055ft 407kts
13-Mar-18 20:51 35.263152 -120.512085 300 38054ft 409kts
13-Mar-18 20:52 35.332990 -120.608822 300 38052ft 409kts
13-Mar-18 20:53 35.402377 -120.705207 299 38063ft 411kts
13-Mar-18 20:54 35.472800 -120.803249 301 38048ft 416kts
13-Mar-18 20:55 35.559521 -120.887873 310 38039ft 433kts
13-Mar-18 20:56 35.647986 -120.970675 310 38039ft 432kts
13-Mar-18 20:57 35.734891 -121.051717 309 38036ft 417kts
13-Mar-18 20:58 35.819929 -121.131226 309 38038ft 411kts
13-Mar-18 20:59 35.903280 -121.209334 309 38035ft 405kts
13-Mar-18 21:00 35.985405 -121.286507 308 38029ft 399kts
13-Mar-18 21:01 36.067383 -121.363051 314 38003ft 408kts
13-Mar-18 21:02 36.153336 -121.430417 313 37399ft 414kts
13-Mar-18 21:03 36.249442 -121.505968 314 34864ft 444kts
13-Mar-18 21:04 36.344053 -121.580110 314 33583ft 429kts
13-Mar-18 21:05 36.436646 -121.652956 314 30162ft 422kts
13-Mar-18 21:06 36.525566 -121.723076 315 26695ft 407kts
13-Mar-18 21:07 36.611450 -121.791034 316 23165ft 394kts
13-Mar-18 21:08 36.694173 -121.856646 317 19821ft 379kts
13-Mar-18 21:09 36.782566 -121.903216 339 16475ft 378kts
13-Mar-18 21:10 36.874009 -121.930504 341 13155ft 359kts
13-Mar-18 21:11 36.960042 -121.955970 338 10039ft 323kts
13-Mar-18 21:12 37.030186 -121.983477 338 8355ft 287kts
13-Mar-18 21:13 37.094079 -122.017229 296 6014ft 243kts
13-Mar-18 21:14 37.128990 -122.057513 346 5969ft 161kts
13-Mar-18 21:15 37.177719 -122.067975 347 6016ft 251kts
13-Mar-18 21:16 37.248615 -122.083072 348 5993ft 276kts
13-Mar-18 21:17 37.316855 -122.097692 347 5977ft 269kts
13-Mar-18 21:18 37.383541 -122.122534 341 4673ft 264kts
13-Mar-18 21:19 37.445866 -122.146821 341 4062ft 254kts
13-Mar-18 21:20 37.510684 -122.167121 343 3963ft 250kts
13-Mar-18 21:21 37.547872 -122.219325 299 2761ft 185kts
13-Mar-18 21:22 37.570592 -122.263509 300 1919ft 136kts
13-Mar-18 21:23 37.589249 -122.301019 299 1639ft 143kts
13-Mar-18 21:24 37.606069 -122.339895 297 504ft 126kts
13-Mar-18 21:25 37.617503 -122.366699 298 10ft 20kts
13-Mar-18 21:26 37.619120 -122.366704 298 10ft 10kts
13-Mar-18 21:27 37.620867 -122.370935 297 12ft 24kts
13-Mar-18 21:28 37.622903 -122.375775 297 19ft 19kts

Navigation Log

Ident Type
Flight plan parsing failed, navigation log unavailable